Time;durP1;ratioP1;P1;durP2;ratioP2;P2;SDS_P1;SDS_P2;PMS_P1;PMS_P2;Temp;Humidity;BMP_temperature;BMP_pressure;BME280_temperature;BME280_humidity;BME280_pressure;Samples;Min_cycle;Max_cycle;Signal;HPM_P1;HPM_P2
2022/01/06 00:01:05;;;;;;;5.10;0.90;;;2.40;82.00;;;;;;5111603;28;20028;-47
2022/01/06 00:03:34;;;;;;;6.97;1.20;;;2.40;82.40;;;;;;5113634;28;20062;-47
2022/01/06 00:06:04;;;;;;;4.63;1.15;;;2.40;82.90;;;;;;5113286;28;20046;-47
2022/01/06 00:08:31;;;;;;;2.67;0.80;;;2.40;83.50;;;;;;5095567;28;20024;-44
2022/01/06 00:10:58;;;;;;;4.80;1.25;;;2.30;83.70;;;;;;5095774;28;20024;-44
2022/01/06 00:13:45;;;;;;;5.88;1.08;;;2.20;83.80;;;;;;5092868;28;20038;-48
2022/01/06 00:16:32;;;;;;;8.52;2.65;;;2.20;83.80;;;;;;5097854;28;20034;-45
2022/01/06 00:24:24;;;;;;;3.50;0.88;;;2.20;83.70;;;;;;5113627;28;20452;-46
2022/01/06 00:26:51;;;;;;;3.88;0.75;;;2.10;84.00;;;;;;5088164;28;20446;-48
2022/01/06 00:29:19;;;;;;;2.95;0.70;;;2.00;84.70;;;;;;5113331;28;20027;-48
2022/01/06 00:31:46;;;;;;;7.20;0.82;;;2.00;85.10;;;;;;5106784;28;20040;-44
2022/01/06 00:34:13;;;;;;;3.70;0.73;;;2.00;85.30;;;;;;5095307;28;20027;-46
2022/01/06 00:36:41;;;;;;;4.93;1.00;;;1.90;85.50;;;;;;5107860;28;20028;-47
2022/01/06 00:39:09;;;;;;;9.05;1.00;;;1.90;86.00;;;;;;5115496;28;20024;-47
2022/01/06 00:41:37;;;;;;;5.10;0.80;;;1.80;85.80;;;;;;5110367;28;20063;-45
2022/01/06 00:44:04;;;;;;;4.25;0.77;;;1.70;86.00;;;;;;5096596;28;20353;-44
2022/01/06 00:46:31;;;;;;;4.88;0.70;;;1.70;85.90;;;;;;5079005;28;20038;-46
2022/01/06 00:48:57;;;;;;;1.63;0.47;;;1.70;86.00;;;;;;5096418;28;20024;-44
2022/01/06 00:51:24;;;;;;;6.57;0.93;;;1.60;86.20;;;;;;5100304;28;20069;-45
2022/01/06 00:53:51;;;;;;;7.05;1.08;;;1.60;86.60;;;;;;5115831;28;20457;-46
2022/01/06 00:56:17;;;;;;;7.40;1.38;;;1.70;86.40;;;;;;5114594;28;20036;-45
2022/01/06 00:58:44;;;;;;;3.00;0.80;;;1.70;86.10;;;;;;5095918;28;20035;-43
2022/01/06 01:01:11;;;;;;;4.70;1.33;;;1.80;85.90;;;;;;5116308;28;20038;-43
2022/01/06 01:03:40;;;;;;;8.30;1.38;;;1.90;85.90;;;;;;5116106;28;20440;-45
2022/01/06 01:06:06;;;;;;;7.30;1.20;;;2.00;85.40;;;;;;5096260;28;20082;-44
2022/01/06 01:08:34;;;;;;;5.75;1.45;;;2.20;84.40;;;;;;5101086;28;20035;-43
2022/01/06 01:11:03;;;;;;;4.18;1.02;;;2.50;82.70;;;;;;5107719;28;20128;-44
2022/01/06 01:13:32;;;;;;;5.97;1.20;;;2.70;81.70;;;;;;5116586;28;20027;-44
2022/01/06 01:16:10;;;;;;;9.55;1.40;;;2.90;81.30;;;;;;5097182;28;20031;-46
2022/01/06 01:18:39;;;;;;;7.38;1.33;;;2.90;79.40;;;;;;5116280;28;20029;-47
2022/01/06 01:21:06;;;;;;;7.67;2.70;;;3.00;78.80;;;;;;5112288;28;20032;-45
2022/01/06 01:23:32;;;;;;;4.32;1.65;;;3.00;77.20;;;;;;5115980;28;20262;-44
2022/01/06 01:25:59;;;;;;;4.45;0.80;;;3.00;77.50;;;;;;5098814;28;20111;-47
2022/01/06 01:28:33;;;;;;;4.95;1.10;;;3.00;77.60;;;;;;5109130;28;20036;-44
2022/01/06 01:33:31;;;;;;;10.57;1.73;;;3.00;78.10;;;;;;5107899;28;20028;-45
2022/01/06 01:36:00;;;;;;;4.22;0.93;;;3.00;77.80;;;;;;5098090;28;20062;-49
2022/01/06 01:38:25;;;;;;;3.43;0.90;;;3.00;78.10;;;;;;5115014;28;20032;-45
2022/01/06 01:40:52;;;;;;;4.03;0.60;;;3.00;78.10;;;;;;5097750;28;20061;-47
2022/01/06 01:43:19;;;;;;;5.20;0.70;;;3.00;76.20;;;;;;5109548;28;20024;-49
2022/01/06 01:45:48;;;;;;;2.30;0.40;;;3.00;74.40;;;;;;5095300;28;20040;-44
2022/01/06 01:48:24;;;;;;;4.88;0.50;;;3.00;73.80;;;;;;5099372;28;20038;-47
2022/01/06 01:50:51;;;;;;;2.58;0.77;;;3.00;73.80;;;;;;5095571;28;20101;-45
2022/01/06 01:53:18;;;;;;;3.05;1.00;;;3.00;74.00;;;;;;5099783;28;20046;-46
2022/01/06 01:55:45;;;;;;;4.07;0.57;;;3.00;74.30;;;;;;5115721;28;20055;-44
2022/01/06 01:58:13;;;;;;;1.77;0.55;;;2.90;74.90;;;;;;5112337;28;20048;-48
2022/01/06 02:00:40;;;;;;;2.40;0.60;;;2.90;76.00;;;;;;5095338;28;20031;-44
2022/01/06 02:03:10;;;;;;;3.90;0.50;;;2.90;78.10;;;;;;5099582;28;20478;-44
2022/01/06 02:05:37;;;;;;;2.10;0.63;;;2.80;79.20;;;;;;5097571;28;20035;-46
2022/01/06 02:08:05;;;;;;;2.65;0.95;;;2.70;80.10;;;;;;5114453;28;20464;-47
2022/01/06 02:10:35;;;;;;;4.20;0.60;;;2.50;80.70;;;;;;5115290;28;20031;-45
2022/01/06 02:13:03;;;;;;;4.10;0.70;;;2.40;81.00;;;;;;5076571;28;20020;-43
2022/01/06 02:15:31;;;;;;;5.35;0.70;;;2.30;81.10;;;;;;5095329;28;20040;-43
2022/01/06 02:17:57;;;;;;;6.22;2.00;;;2.20;81.20;;;;;;5096345;28;20395;-45
2022/01/06 02:20:24;;;;;;;2.15;0.63;;;2.10;82.30;;;;;;5115237;28;20089;-45
2022/01/06 02:22:52;;;;;;;10.88;1.63;;;2.00;82.60;;;;;;5114146;28;20361;-46
2022/01/06 02:25:21;;;;;;;19.55;10.98;;;2.00;82.80;;;;;;5114982;28;20065;-46
2022/01/06 02:27:51;;;;;;;;;;;1.90;83.90;;;;;;5114538;28;20031;-45
2022/01/06 02:30:19;;;;;;;10.68;1.80;;;1.80;84.20;;;;;;5076748;28;19943;-44
2022/01/06 02:32:46;;;;;;;7.03;1.98;;;1.70;84.70;;;;;;5102051;28;20088;-45
2022/01/06 02:35:16;;;;;;;3.33;1.10;;;1.70;85.00;;;;;;5096230;28;20039;-43
2022/01/06 02:37:43;;;;;;;5.05;1.10;;;1.80;85.60;;;;;;5114109;28;20108;-44
2022/01/06 02:40:12;;;;;;;6.25;1.23;;;1.80;86.00;;;;;;5114555;28;20191;-48
2022/01/06 02:42:46;;;;;;;7.53;1.38;;;1.90;86.10;;;;;;5114739;28;20024;-57
2022/01/06 02:45:13;;;;;;;5.85;1.92;;;1.90;86.20;;;;;;5112410;28;20050;-59
2022/01/06 02:47:43;;;;;;;4.90;0.90;;;2.00;86.50;;;;;;5096698;28;20322;-48
2022/01/06 02:50:10;;;;;;;;;;;2.10;86.60;;;;;;5098561;28;20028;-49
2022/01/06 02:52:40;;;;;;;7.50;0.70;;;2.10;86.60;;;;;;5094098;28;19914;-50
2022/01/06 02:55:09;;;;;;;2.13;0.70;;;2.10;86.80;;;;;;5109796;28;20112;-54
2022/01/06 02:57:38;;;;;;;4.28;0.60;;;2.10;86.90;;;;;;5096468;28;20039;-54
2022/01/06 03:00:12;;;;;;;7.57;1.10;;;2.20;87.10;;;;;;5098701;28;20040;-54
2022/01/06 03:02:41;;;;;;;7.43;1.10;;;2.20;86.90;;;;;;5077143;28;20032;-55
2022/01/06 03:05:09;;;;;;;3.22;0.75;;;2.10;87.40;;;;;;5094425;28;20108;-54
2022/01/06 03:07:34;;;;;;;7.80;0.80;;;2.20;87.60;;;;;;5076089;28;20544;-56
2022/01/06 03:10:04;;;;;;;2.65;0.60;;;2.20;87.70;;;;;;5106500;28;20115;-57
2022/01/06 03:12:39;;;;;;;4.65;0.90;;;2.20;87.80;;;;;;5103871;28;20422;-56
2022/01/06 03:15:11;;;;;;;4.30;0.90;;;2.20;87.80;;;;;;5107195;28;20054;-57
2022/01/06 03:17:40;;;;;;;2.80;0.75;;;2.20;87.80;;;;;;5113818;28;20360;-56
2022/01/06 03:20:10;;;;;;;3.65;1.08;;;2.10;87.90;;;;;;5101016;28;20028;-57
2022/01/06 03:22:37;;;;;;;5.35;0.68;;;2.10;87.80;;;;;;5076539;28;20039;-55
2022/01/06 03:25:05;;;;;;;1.98;0.50;;;2.10;87.80;;;;;;5105471;28;20368;-53
2022/01/06 03:27:32;;;;;;;4.50;0.95;;;2.00;87.90;;;;;;5113967;28;20027;-54
2022/01/06 03:29:59;;;;;;;6.32;1.63;;;1.90;88.00;;;;;;5085370;28;20483;-53
2022/01/06 03:32:26;;;;;;;3.35;0.85;;;1.90;88.00;;;;;;5083457;28;20454;-49
2022/01/06 03:34:53;;;;;;;1.50;0.43;;;1.90;88.10;;;;;;5113251;28;20106;-48
2022/01/06 03:37:20;;;;;;;4.40;0.63;;;1.90;88.10;;;;;;5110949;28;20039;-55
2022/01/06 03:39:47;;;;;;;11.98;2.58;;;1.80;88.20;;;;;;5101461;28;20036;-52
2022/01/06 03:42:16;;;;;;;4.90;1.00;;;1.80;88.50;;;;;;5109644;28;20103;-53
2022/01/06 03:44:49;;;;;;;5.93;0.93;;;1.80;88.30;;;;;;5113152;28;20039;-51
2022/01/06 03:47:16;;;;;;;4.50;1.00;;;1.80;88.40;;;;;;5095972;28;20060;-52
2022/01/06 03:49:42;;;;;;;6.00;1.67;;;1.70;88.30;;;;;;5113052;28;20039;-50
2022/01/06 03:52:11;;;;;;;8.55;1.63;;;1.70;88.30;;;;;;5113771;28;20034;-47
2022/01/06 03:54:38;;;;;;;5.27;2.90;;;1.70;88.30;;;;;;5108072;28;20038;-49
2022/01/06 03:57:05;;;;;;;6.03;1.25;;;1.70;88.30;;;;;;5096641;28;20028;-49
2022/01/06 03:59:32;;;;;;;3.22;1.00;;;1.70;88.20;;;;;;5111107;28;20024;-47
2022/01/06 04:01:58;;;;;;;5.07;1.20;;;1.60;88.30;;;;;;5096190;28;20032;-48
2022/01/06 04:04:25;;;;;;;10.77;1.48;;;1.60;88.30;;;;;;5111212;28;20479;-47
2022/01/06 04:06:51;;;;;;;9.75;1.50;;;1.60;88.40;;;;;;5093224;28;20043;-44
2022/01/06 04:09:18;;;;;;;4.68;1.63;;;1.60;88.40;;;;;;5075776;28;20166;-45
2022/01/06 04:11:45;;;;;;;6.40;1.70;;;1.60;88.40;;;;;;5096160;28;20050;-50
2022/01/06 04:14:12;;;;;;;4.03;1.20;;;1.50;88.30;;;;;;5082128;28;20051;-45
2022/01/06 04:16:40;;;;;;;13.07;1.83;;;1.60;88.20;;;;;;5116641;28;20039;-49
2022/01/06 04:19:07;;;;;;;7.30;1.55;;;1.40;88.10;;;;;;5117399;28;20050;-44
2022/01/06 04:21:34;;;;;;;5.05;1.17;;;1.40;88.30;;;;;;5098540;28;20028;-45
2022/01/06 04:24:00;;;;;;;4.72;0.98;;;1.40;88.30;;;;;;5096542;28;20495;-44
2022/01/06 04:26:27;;;;;;;9.38;1.10;;;1.40;88.40;;;;;;5113732;28;20028;-45
2022/01/06 04:28:54;;;;;;;5.05;0.82;;;1.40;88.50;;;;;;5099371;28;20059;-45
2022/01/06 04:31:21;;;;;;;6.60;1.13;;;1.40;88.60;;;;;;5101499;28;20043;-44
2022/01/06 04:33:48;;;;;;;5.78;1.13;;;1.40;88.80;;;;;;5112484;28;20340;-45
2022/01/06 04:36:14;;;;;;;13.20;1.35;;;1.40;89.10;;;;;;5086760;28;20356;-45
2022/01/06 04:38:41;;;;;;;9.95;1.20;;;1.40;89.20;;;;;;5078843;28;20115;-44
2022/01/06 04:41:06;;;;;;;4.95;1.38;;;1.40;89.10;;;;;;5099885;28;20058;-45
2022/01/06 04:43:37;;;;;;;8.27;1.40;;;1.40;88.90;;;;;;5112548;28;20031;-48
2022/01/06 04:46:03;;;;;;;5.82;1.27;;;1.40;88.80;;;;;;5106014;28;20421;-43
2022/01/06 04:48:30;;;;;;;8.70;1.50;;;1.40;88.60;;;;;;5116620;28;20035;-46
2022/01/06 04:50:57;;;;;;;9.43;1.92;;;1.30;88.80;;;;;;5116636;28;20468;-43
2022/01/06 04:53:25;;;;;;;6.82;2.30;;;1.30;88.80;;;;;;5116543;28;20126;-44
2022/01/06 04:55:54;;;;;;;9.27;1.80;;;1.30;88.70;;;;;;5114557;28;20040;-42
2022/01/06 04:58:21;;;;;;;2.17;1.00;;;1.30;88.80;;;;;;5108264;28;20036;-43
2022/01/06 05:00:47;;;;;;;5.53;1.33;;;1.40;88.70;;;;;;5110559;28;20035;-48
2022/01/06 05:03:14;;;;;;;5.22;1.73;;;1.40;88.80;;;;;;5098523;28;20027;-42
2022/01/06 05:05:41;;;;;;;15.63;1.80;;;1.40;88.90;;;;;;5116323;28;20058;-44
2022/01/06 05:08:08;;;;;;;9.10;1.52;;;1.40;89.10;;;;;;5098177;28;20028;-44
2022/01/06 05:10:35;;;;;;;11.43;1.98;;;1.50;89.10;;;;;;5077903;28;20028;-42
2022/01/06 05:13:04;;;;;;;8.98;2.58;;;1.50;89.10;;;;;;5110386;28;20027;-47
2022/01/06 05:15:31;;;;;;;7.30;2.53;;;1.60;88.90;;;;;;5116470;28;20396;-46
2022/01/06 05:17:59;;;;;;;17.40;3.47;;;1.70;89.00;;;;;;5084295;28;20043;-45
2022/01/06 05:20:27;;;;;;;15.63;2.53;;;1.80;89.00;;;;;;5096143;28;20364;-46
2022/01/06 05:22:57;;;;;;;9.38;1.83;;;1.80;88.90;;;;;;5107617;28;20038;-44
2022/01/06 05:25:28;;;;;;;6.95;1.90;;;1.90;88.90;;;;;;5115524;28;20024;-42
2022/01/06 05:27:56;;;;;;;9.38;1.65;;;1.90;88.80;;;;;;5103191;28;20028;-47
2022/01/06 05:30:23;;;;;;;10.60;1.65;;;1.80;88.60;;;;;;5095367;28;20625;-42
2022/01/06 05:32:50;;;;;;;12.40;3.00;;;1.80;88.70;;;;;;5102497;28;20039;-47
2022/01/06 05:35:18;;;;;;;8.68;2.65;;;1.70;88.60;;;;;;5115382;28;20031;-42
2022/01/06 05:37:45;;;;;;;15.13;2.17;;;1.70;88.70;;;;;;5106095;28;20071;-42
2022/01/06 05:40:12;;;;;;;16.50;3.45;;;1.70;88.60;;;;;;5095452;28;20442;-42
2022/01/06 05:42:40;;;;;;;17.65;3.28;;;1.70;88.40;;;;;;5103720;28;20031;-45
2022/01/06 05:45:09;;;;;;;10.07;1.75;;;1.70;88.30;;;;;;5114476;28;20055;-45
2022/01/06 05:47:34;;;;;;;17.65;2.85;;;1.70;88.30;;;;;;5114586;28;20031;-42
2022/01/06 05:50:04;;;;;;;13.45;2.25;;;1.70;88.20;;;;;;5113049;28;20028;-45
2022/01/06 05:52:31;;;;;;;12.98;3.38;;;1.60;88.10;;;;;;5108134;28;20042;-42
2022/01/06 05:54:58;;;;;;;19.17;3.60;;;1.70;88.20;;;;;;5095004;28;20070;-42
2022/01/06 05:57:27;;;;;;;12.63;2.38;;;1.60;88.10;;;;;;5094425;28;20516;-44
2022/01/06 05:59:54;;;;;;;6.80;2.42;;;1.60;87.90;;;;;;5114556;28;20101;-45
2022/01/06 06:02:20;;;;;;;7.72;2.08;;;1.60;87.90;;;;;;5096061;28;20357;-43
2022/01/06 06:04:47;;;;;;;7.25;1.63;;;1.50;88.00;;;;;;5112960;28;20047;-45
2022/01/06 06:07:14;;;;;;;10.57;2.45;;;1.50;87.90;;;;;;5095114;28;20365;-45
2022/01/06 06:09:41;;;;;;;12.85;3.25;;;1.40;88.00;;;;;;5115070;28;20031;-45
2022/01/06 06:12:08;;;;;;;9.07;1.92;;;1.40;88.00;;;;;;5090467;28;20062;-45
2022/01/06 06:14:35;;;;;;;9.77;3.20;;;1.30;88.00;;;;;;5103801;28;20031;-46
2022/01/06 06:17:02;;;;;;;9.52;2.25;;;1.30;88.10;;;;;;5113406;28;20119;-45
2022/01/06 06:19:27;;;;;;;12.80;1.80;;;1.30;88.20;;;;;;5115359;28;20024;-43
2022/01/06 06:21:54;;;;;;;5.22;1.52;;;1.20;88.10;;;;;;5092891;28;20624;-43
2022/01/06 06:24:24;;;;;;;10.30;2.08;;;1.20;88.30;;;;;;5114850;28;20044;-41
2022/01/06 06:26:50;;;;;;;12.25;2.40;;;1.20;88.20;;;;;;5099857;28;20051;-45
2022/01/06 06:29:17;;;;;;;9.65;1.55;;;1.10;88.40;;;;;;5104199;27;20407;-41
2022/01/06 06:31:44;;;;;;;5.55;1.88;;;1.10;88.40;;;;;;5123614;27;20237;-44
2022/01/06 06:34:11;;;;;;;10.88;2.30;;;1.00;88.40;;;;;;5112894;28;20364;-44
2022/01/06 06:36:38;;;;;;;6.20;1.73;;;1.10;88.50;;;;;;5113173;28;20042;-45
2022/01/06 06:39:06;;;;;;;7.32;2.03;;;1.00;88.40;;;;;;5110911;28;20055;-42
2022/01/06 06:41:31;;;;;;;7.03;2.50;;;1.00;88.50;;;;;;5096796;28;20603;-41
2022/01/06 06:43:57;;;;;;;7.32;2.15;;;0.90;88.50;;;;;;5107150;28;20111;-44
2022/01/06 06:46:24;;;;;;;11.15;1.88;;;0.90;88.60;;;;;;5081425;28;20380;-42
2022/01/06 06:48:51;;;;;;;12.23;1.98;;;0.90;88.60;;;;;;5111640;28;20031;-43
2022/01/06 06:51:21;;;;;;;10.00;1.92;;;0.90;88.70;;;;;;5113581;28;20024;-41
2022/01/06 06:53:48;;;;;;;13.73;3.65;;;0.90;88.70;;;;;;5113236;28;20024;-44
2022/01/06 06:56:15;;;;;;;9.63;2.15;;;0.90;88.80;;;;;;5092564;28;20125;-45
2022/01/06 06:58:44;;;;;;;14.15;2.78;;;0.90;88.70;;;;;;5112517;28;20039;-44
2022/01/06 07:01:11;;;;;;;12.02;2.53;;;0.90;88.70;;;;;;5096357;28;20035;-43
2022/01/06 07:03:38;;;;;;;9.02;2.30;;;0.80;88.70;;;;;;5112222;28;20034;-42
2022/01/06 07:06:03;;;;;;;8.07;2.38;;;0.80;88.80;;;;;;5094092;28;20036;-44
2022/01/06 07:08:30;;;;;;;9.20;3.25;;;0.80;88.80;;;;;;5076393;28;20032;-46
2022/01/06 07:10:57;;;;;;;11.65;2.20;;;0.80;88.80;;;;;;5084306;28;20491;-42
2022/01/06 07:13:24;;;;;;;9.07;3.63;;;0.80;88.80;;;;;;5100195;28;20518;-43
2022/01/06 07:15:51;;;;;;;12.07;3.05;;;0.80;88.80;;;;;;5109380;28;20040;-42
2022/01/06 07:18:20;;;;;;;8.50;2.28;;;0.70;88.80;;;;;;5109077;28;20033;-47
2022/01/06 07:20:46;;;;;;;12.43;2.38;;;0.70;88.80;;;;;;5106130;28;20049;-41
2022/01/06 07:23:16;;;;;;;9.05;2.45;;;0.60;88.80;;;;;;5101381;28;20023;-44
2022/01/06 07:25:44;;;;;;;10.18;2.00;;;0.70;88.80;;;;;;5083555;28;20028;-41
2022/01/06 07:28:12;;;;;;;8.02;2.47;;;0.60;88.90;;;;;;5092267;28;20487;-42
2022/01/06 07:30:39;;;;;;;9.45;2.50;;;0.60;89.00;;;;;;5099207;27;20043;-43
2022/01/06 07:33:07;;;;;;;10.77;2.20;;;0.70;89.00;;;;;;5072738;27;20444;-44
2022/01/06 07:35:33;;;;;;;13.40;2.72;;;0.70;89.00;;;;;;5096967;27;20167;-41
2022/01/06 07:38:00;;;;;;;10.23;2.95;;;0.80;89.00;;;;;;5104907;27;20035;-42
2022/01/06 07:40:27;;;;;;;6.43;2.00;;;0.80;88.90;;;;;;5094719;27;20036;-45
2022/01/06 07:42:54;;;;;;;13.48;2.65;;;0.90;88.90;;;;;;5080578;28;20097;-43
2022/01/06 07:45:20;;;;;;;7.97;2.92;;;0.90;88.90;;;;;;5113302;28;20113;-42
2022/01/06 07:48:04;;;;;;;12.38;4.63;;;0.90;89.00;;;;;;5113490;28;20024;-44
2022/01/06 07:50:33;;;;;;;10.00;2.50;;;1.00;88.90;;;;;;5112394;28;20028;-45
2022/01/06 07:53:00;;;;;;;8.30;1.90;;;1.00;89.00;;;;;;5113438;28;20043;-43
2022/01/06 07:55:26;;;;;;;16.63;3.65;;;1.00;88.70;;;;;;5093318;28;20137;-44
2022/01/06 07:57:54;;;;;;;14.18;3.08;;;1.00;88.70;;;;;;5101262;28;20083;-43
2022/01/06 08:00:21;;;;;;;11.10;2.60;;;1.10;88.70;;;;;;5103122;28;20074;-41
2022/01/06 08:02:48;;;;;;;17.23;2.35;;;1.10;88.70;;;;;;5112582;28;20148;-46
2022/01/06 08:05:15;;;;;;;17.50;2.88;;;1.10;88.60;;;;;;5107496;28;20042;-45
2022/01/06 08:07:42;;;;;;;16.33;1.80;;;1.20;88.70;;;;;;5084701;28;20039;-43
2022/01/06 08:10:09;;;;;;;13.43;3.08;;;1.20;88.70;;;;;;5109572;28;20042;-42
2022/01/06 08:12:35;;;;;;;12.10;2.63;;;1.30;88.80;;;;;;5091930;28;20027;-49
2022/01/06 08:15:03;;;;;;;12.85;2.88;;;1.40;88.70;;;;;;5100679;28;20085;-44
2022/01/06 08:17:29;;;;;;;8.43;2.60;;;1.40;88.80;;;;;;5108708;28;20027;-41
2022/01/06 08:19:59;;;;;;;8.00;2.30;;;1.40;88.80;;;;;;5107596;28;20437;-41
2022/01/06 08:22:26;;;;;;;8.82;2.72;;;1.50;88.80;;;;;;5092235;28;20032;-41
2022/01/06 08:24:52;;;;;;;15.80;3.50;;;1.60;88.80;;;;;;5109411;28;20037;-44
2022/01/06 08:27:23;;;;;;;7.20;2.95;;;1.60;88.70;;;;;;5089700;28;20356;-46
2022/01/06 08:29:52;;;;;;;12.10;2.45;;;1.60;88.60;;;;;;5111567;28;20020;-41
2022/01/06 08:32:24;;;;;;;7.78;2.28;;;1.60;88.80;;;;;;5109675;28;20023;-44
2022/01/06 08:34:50;;;;;;;11.93;3.03;;;1.60;88.70;;;;;;5110337;28;20668;-42
2022/01/06 08:37:21;;;;;;;12.95;2.80;;;1.70;88.80;;;;;;5107534;28;20028;-42
2022/01/06 08:39:47;;;;;;;10.13;2.40;;;1.70;88.90;;;;;;5097677;28;20034;-42
2022/01/06 08:42:13;;;;;;;14.95;3.30;;;1.70;88.80;;;;;;5089068;28;20126;-41
2022/01/06 08:44:41;;;;;;;9.63;2.30;;;1.70;88.70;;;;;;5093557;28;20047;-42
2022/01/06 08:47:09;;;;;;;12.48;2.95;;;1.70;88.60;;;;;;5110176;28;20043;-46
2022/01/06 08:49:36;;;;;;;12.25;4.72;;;1.70;88.50;;;;;;5091010;28;20032;-44
2022/01/06 08:52:02;;;;;;;19.15;5.55;;;1.70;88.40;;;;;;5090872;28;20115;-43
2022/01/06 08:54:30;;;;;;;13.85;4.85;;;1.70;88.50;;;;;;5108207;28;20382;-42
2022/01/06 08:56:57;;;;;;;10.15;3.97;;;1.70;88.20;;;;;;5110388;28;20032;-42
2022/01/06 08:59:24;;;;;;;10.50;2.67;;;1.80;88.30;;;;;;5111623;28;20467;-43
2022/01/06 09:01:50;;;;;;;14.00;3.35;;;1.80;88.00;;;;;;5110332;28;20032;-43
2022/01/06 09:04:20;;;;;;;14.25;3.42;;;1.80;88.00;;;;;;5095257;28;20115;-42
2022/01/06 09:06:51;;;;;;;10.82;2.95;;;1.80;88.00;;;;;;5112837;28;20024;-45
2022/01/06 09:09:18;;;;;;;7.75;2.30;;;1.80;87.90;;;;;;5114734;28;20471;-44
2022/01/06 09:11:46;;;;;;;18.25;2.40;;;1.90;87.80;;;;;;5114150;28;20111;-48
2022/01/06 09:14:14;;;;;;;14.32;2.63;;;2.00;87.70;;;;;;5095107;28;20123;-43
2022/01/06 09:16:41;;;;;;;13.13;2.92;;;2.10;87.50;;;;;;5096561;28;20074;-44
2022/01/06 09:19:08;;;;;;;15.82;2.95;;;2.20;87.40;;;;;;5096057;28;20031;-45
2022/01/06 09:21:38;;;;;;;16.02;2.85;;;2.20;87.10;;;;;;5093172;28;20459;-44
2022/01/06 09:24:06;;;;;;;10.13;2.58;;;2.30;87.00;;;;;;5095471;28;20125;-48
2022/01/06 09:26:37;;;;;;;15.13;5.18;;;2.20;86.70;;;;;;5115138;28;20034;-47
2022/01/06 09:29:07;;;;;;;20.90;2.47;;;2.30;86.60;;;;;;5114773;28;20023;-45
2022/01/06 09:31:36;;;;;;;13.20;2.53;;;2.40;86.70;;;;;;5108028;28;20487;-44
2022/01/06 09:34:03;;;;;;;13.95;2.80;;;2.40;86.70;;;;;;5108001;28;20027;-43
2022/01/06 09:36:31;;;;;;;10.50;2.15;;;2.60;86.70;;;;;;5095015;28;20452;-45
2022/01/06 09:38:59;;;;;;;11.85;2.75;;;2.60;86.60;;;;;;5111778;28;20028;-46
2022/01/06 09:41:26;;;;;;;9.02;2.65;;;2.70;86.60;;;;;;5108715;28;20047;-50
2022/01/06 09:43:55;;;;;;;18.20;3.38;;;2.80;86.70;;;;;;5094410;28;20029;-50
2022/01/06 09:46:24;;;;;;;23.08;3.22;;;2.90;86.60;;;;;;5110544;28;20027;-50
2022/01/06 09:48:57;;;;;;;14.13;3.13;;;2.90;86.30;;;;;;5111998;28;20027;-54
2022/01/06 09:51:24;;;;;;;11.02;2.03;;;3.10;86.30;;;;;;5109033;28;20059;-52
2022/01/06 09:53:58;;;;;;;16.27;4.47;;;3.20;86.30;;;;;;5096566;28;20023;-54
2022/01/06 09:56:29;;;;;;;17.88;8.55;;;3.30;86.10;;;;;;5111215;28;20135;-56
2022/01/06 09:58:55;;;;;;;19.80;7.18;;;3.40;85.90;;;;;;5112655;28;20110;-54
2022/01/06 10:01:25;;;;;;;16.02;7.53;;;3.50;85.80;;;;;;5113388;28;20135;-58
2022/01/06 10:03:52;;;;;;;14.65;5.57;;;3.60;85.70;;;;;;5114317;28;20509;-57
2022/01/06 10:06:23;;;;;;;16.90;5.05;;;3.60;85.50;;;;;;5110686;28;20035;-59
2022/01/06 10:09:04;;;;;;;11.93;4.40;;;3.80;85.40;;;;;;5094020;28;20440;-60
2022/01/06 10:11:35;;;;;;;13.02;3.63;;;3.90;85.30;;;;;;5114245;28;20034;-61
2022/01/06 10:14:11;;;;;;;11.57;2.80;;;3.90;85.20;;;;;;5113304;28;20036;-62
2022/01/06 10:16:50;;;;;;;12.90;2.97;;;3.90;85.00;;;;;;5108800;28;20024;-62
2022/01/06 10:19:16;;;;;;;16.67;2.63;;;3.90;84.80;;;;;;5113292;28;20077;-62
2022/01/06 10:22:00;;;;;;;12.35;2.58;;;3.90;84.90;;;;;;5089297;28;20040;-62
2022/01/06 10:24:28;;;;;;;12.20;2.60;;;3.90;84.70;;;;;;5112055;28;20451;-61
2022/01/06 10:27:15;;;;;;;13.25;3.42;;;3.90;84.90;;;;;;5095626;28;20059;-61
2022/01/06 10:29:51;;;;;;;17.20;4.03;;;3.90;85.10;;;;;;5109025;28;20023;-61
2022/01/06 10:32:24;;;;;;;19.58;3.47;;;3.90;84.90;;;;;;5092404;28;20512;-60
2022/01/06 10:34:52;;;;;;;15.57;2.65;;;3.90;85.10;;;;;;5110760;28;20024;-60
2022/01/06 10:37:27;;;;;;;11.80;3.25;;;3.90;85.10;;;;;;5095526;28;20023;-60
2022/01/06 10:40:02;;;;;;;12.88;4.90;;;3.90;85.00;;;;;;5110796;28;20024;-59
2022/01/06 10:42:32;;;;;;;14.38;3.85;;;3.90;84.90;;;;;;5112678;28;20028;-60
2022/01/06 10:45:07;;;;;;;11.77;2.90;;;3.90;84.80;;;;;;5110109;28;20118;-60
2022/01/06 10:47:47;;;;;;;15.88;2.33;;;3.90;84.70;;;;;;5113088;28;20437;-58
2022/01/06 10:50:22;;;;;;;13.00;2.42;;;3.90;84.70;;;;;;5112818;28;20020;-61
2022/01/06 10:53:03;;;;;;;10.27;2.50;;;3.90;84.90;;;;;;5094303;28;20020;-61
2022/01/06 10:55:36;;;;;;;26.58;5.80;;;3.90;84.90;;;;;;5091466;28;20020;-61
2022/01/06 10:58:19;;;;;;;9.02;3.78;;;3.90;84.90;;;;;;5107920;28;20024;-61
2022/01/06 11:00:53;;;;;;;12.57;2.75;;;3.90;85.00;;;;;;5108589;28;20035;-61
2022/01/06 11:03:25;;;;;;;13.82;3.45;;;3.90;85.30;;;;;;5113918;28;20066;-61
2022/01/06 11:05:57;;;;;;;11.40;2.65;;;4.00;85.40;;;;;;5111985;28;20031;-61
2022/01/06 11:08:43;;;;;;;8.60;3.13;;;4.00;85.40;;;;;;5105829;28;20026;-61
2022/01/06 11:13:37;;;;;;;10.90;2.53;;;4.00;85.70;;;;;;5110450;28;20031;-61
2022/01/06 11:16:05;;;;;;;13.23;2.22;;;4.10;85.70;;;;;;5112921;28;20031;-61
2022/01/06 11:18:31;;;;;;;11.98;2.20;;;4.10;85.70;;;;;;5091946;28;20402;-61
2022/01/06 11:21:10;;;;;;;15.00;2.85;;;4.10;85.70;;;;;;5094798;28;20051;-61
2022/01/06 11:23:36;;;;;;;13.57;3.35;;;4.20;85.70;;;;;;5092672;28;20081;-61
2022/01/06 11:26:13;;;;;;;11.95;3.03;;;4.20;85.70;;;;;;5112211;28;20042;-61
2022/01/06 11:28:40;;;;;;;12.55;3.08;;;4.20;85.80;;;;;;5093801;28;20032;-60
2022/01/06 11:31:17;;;;;;;13.43;3.45;;;4.20;85.80;;;;;;5111779;28;20032;-60
2022/01/06 11:33:46;;;;;;;12.27;2.47;;;4.40;85.90;;;;;;5110237;28;20051;-59
2022/01/06 11:36:38;;;;;;;10.32;2.05;;;4.50;85.70;;;;;;5094606;28;20019;-60
2022/01/06 11:39:07;;;;;;;20.10;2.65;;;4.60;85.20;;;;;;5088822;28;20406;-59
2022/01/06 11:41:38;;;;;;;19.10;3.50;;;4.60;85.10;;;;;;5112713;28;20051;-59
2022/01/06 11:44:25;;;;;;;15.70;2.75;;;4.70;85.50;;;;;;5111479;28;20115;-59
2022/01/06 11:46:56;;;;;;;13.20;2.85;;;4.80;85.00;;;;;;5108052;28;20078;-59
2022/01/06 11:49:36;;;;;;;9.60;2.42;;;4.70;85.10;;;;;;5085963;28;20069;-59
2022/01/06 11:52:07;;;;;;;11.32;2.47;;;4.60;84.90;;;;;;5105066;28;20016;-58
2022/01/06 11:54:52;;;;;;;10.90;2.78;;;4.50;84.80;;;;;;5107465;28;20192;-59
2022/01/06 11:57:32;;;;;;;11.02;2.53;;;4.40;85.00;;;;;;5104528;28;20043;-58
2022/01/06 11:59:59;;;;;;;12.48;2.17;;;4.30;85.20;;;;;;5108745;28;20035;-58
2022/01/06 12:02:25;;;;;;;12.65;2.55;;;4.30;85.50;;;;;;5110786;28;20035;-59
2022/01/06 12:04:59;;;;;;;20.83;2.85;;;4.20;85.60;;;;;;5092984;28;20023;-58
2022/01/06 12:07:27;;;;;;;12.23;3.10;;;4.10;85.80;;;;;;5106359;28;20453;-58
2022/01/06 12:10:20;;;;;;;8.95;2.63;;;4.10;85.90;;;;;;5109833;28;20114;-58
2022/01/06 12:12:50;;;;;;;9.13;2.58;;;4.10;86.00;;;;;;5107840;28;20032;-59
2022/01/06 12:15:19;;;;;;;9.98;2.10;;;4.10;86.10;;;;;;5109205;28;20426;-56
2022/01/06 12:17:52;;;;;;;10.05;2.38;;;4.00;86.20;;;;;;5112051;28;20046;-58
2022/01/06 12:20:23;;;;;;;10.10;3.25;;;4.00;86.40;;;;;;5107318;28;20047;-55
2022/01/06 12:22:52;;;;;;;9.80;3.78;;;4.00;86.50;;;;;;5111035;28;20015;-58
2022/01/06 12:25:26;;;;;;;14.47;4.07;;;4.00;86.60;;;;;;5089331;28;20028;-58
2022/01/06 12:27:56;;;;;;;8.88;3.13;;;4.10;86.90;;;;;;5108370;28;20023;-58
2022/01/06 12:30:26;;;;;;;7.53;2.50;;;4.20;87.10;;;;;;5110844;28;20135;-58
2022/01/06 12:33:10;;;;;;;10.68;2.40;;;4.30;87.20;;;;;;5094332;28;20028;-56
2022/01/06 12:35:51;;;;;;;9.07;2.45;;;4.40;87.10;;;;;;5111221;28;20042;-57
2022/01/06 12:38:31;;;;;;;10.43;2.83;;;4.60;86.90;;;;;;5108082;28;20020;-56
2022/01/06 12:40:57;;;;;;;;;;;4.70;86.90;;;;;;5110762;28;20023;-57
2022/01/06 12:43:30;;;;;;;8.05;2.55;;;4.80;86.70;;;;;;5114446;28;19912;-57
2022/01/06 12:46:13;;;;;;;11.15;2.30;;;4.90;86.60;;;;;;5112199;28;20050;-57
2022/01/06 12:48:42;;;;;;;9.27;2.65;;;5.00;86.10;;;;;;5114888;28;20031;-52
2022/01/06 12:51:17;;;;;;;10.27;2.60;;;5.00;85.80;;;;;;5108934;28;20467;-56
2022/01/06 12:53:47;;;;;;;10.98;2.30;;;5.00;85.40;;;;;;5090163;28;20122;-54
2022/01/06 12:56:29;;;;;;;8.40;2.30;;;5.00;84.90;;;;;;5112954;28;20059;-55
2022/01/06 12:58:56;;;;;;;9.13;1.60;;;4.90;84.50;;;;;;5089280;28;20036;-55
2022/01/06 13:01:25;;;;;;;5.85;1.73;;;4.90;84.20;;;;;;5091181;28;20082;-56
2022/01/06 13:03:56;;;;;;;6.88;1.88;;;4.80;84.10;;;;;;5103667;28;20038;-53
2022/01/06 13:06:23;;;;;;;9.68;1.95;;;4.80;84.20;;;;;;5096273;28;20548;-53
2022/01/06 13:08:56;;;;;;;14.00;3.13;;;4.80;84.50;;;;;;5115549;28;20415;-54
2022/01/06 13:11:28;;;;;;;7.85;2.03;;;4.80;84.40;;;;;;5113969;28;20030;-53
2022/01/06 13:13:56;;;;;;;6.15;1.88;;;4.80;84.50;;;;;;5112597;28;20028;-50